sensor_id;sensor_type;location;lat;lon;timestamp;P1;durP1;ratioP1;P2;durP2;ratioP2
50213;SDS011;36103;54.176;12.070;2023-05-10T00:00:52;6.23;;;3.90;;
50213;SDS011;36103;54.176;12.070;2023-05-10T00:01:54;4.93;;;3.50;;
50213;SDS011;36103;54.176;12.070;2023-05-10T00:02:55;4.33;;;3.37;;
50213;SDS011;36103;54.176;12.070;2023-05-10T00:03:56;4.00;;;3.07;;
50213;SDS011;36103;54.176;12.070;2023-05-10T00:04:57;4.97;;;3.50;;
50213;SDS011;36103;54.176;12.070;2023-05-10T00:05:58;3.57;;;3.27;;
50213;SDS011;36103;54.176;12.070;2023-05-10T00:06:59;3.43;;;3.00;;
50213;SDS011;36103;54.176;12.070;2023-05-10T00:08:01;6.00;;;3.60;;
50213;SDS011;36103;54.176;12.070;2023-05-10T00:09:02;4.00;;;2.97;;
50213;SDS011;36103;54.176;12.070;2023-05-10T00:10:04;3.30;;;2.87;;
50213;SDS011;36103;54.176;12.070;2023-05-10T00:11:06;4.00;;;3.03;;
50213;SDS011;36103;54.176;12.070;2023-05-10T00:12:07;4.13;;;3.37;;
50213;SDS011;36103;54.176;12.070;2023-05-10T00:13:09;3.50;;;2.80;;
50213;SDS011;36103;54.176;12.070;2023-05-10T00:14:12;4.00;;;3.30;;
50213;SDS011;36103;54.176;12.070;2023-05-10T00:15:12;5.70;;;3.07;;
50213;SDS011;36103;54.176;12.070;2023-05-10T00:16:14;3.53;;;3.07;;
50213;SDS011;36103;54.176;12.070;2023-05-10T00:17:15;5.23;;;3.03;;
50213;SDS011;36103;54.176;12.070;2023-05-10T00:18:16;4.10;;;3.17;;
50213;SDS011;36103;54.176;12.070;2023-05-10T00:19:17;3.70;;;2.77;;
50213;SDS011;36103;54.176;12.070;2023-05-10T00:20:18;3.87;;;2.90;;
50213;SDS011;36103;54.176;12.070;2023-05-10T00:21:19;3.23;;;2.70;;
50213;SDS011;36103;54.176;12.070;2023-05-10T00:22:21;3.50;;;3.03;;
50213;SDS011;36103;54.176;12.070;2023-05-10T00:23:23;5.03;;;3.10;;
50213;SDS011;36103;54.176;12.070;2023-05-10T00:24:24;3.40;;;3.10;;
50213;SDS011;36103;54.176;12.070;2023-05-10T00:25:25;3.57;;;2.93;;
50213;SDS011;36103;54.176;12.070;2023-05-10T00:26:26;3.93;;;2.90;;
50213;SDS011;36103;54.176;12.070;2023-05-10T00:27:29;4.87;;;3.17;;
50213;SDS011;36103;54.176;12.070;2023-05-10T00:28:32;3.67;;;2.73;;
50213;SDS011;36103;54.176;12.070;2023-05-10T00:29:32;3.20;;;2.90;;
50213;SDS011;36103;54.176;12.070;2023-05-10T00:30:34;4.27;;;2.80;;
50213;SDS011;36103;54.176;12.070;2023-05-10T00:31:35;3.03;;;2.37;;
50213;SDS011;36103;54.176;12.070;2023-05-10T00:32:37;3.73;;;3.30;;
50213;SDS011;36103;54.176;12.070;2023-05-10T00:33:38;4.03;;;2.90;;
50213;SDS011;36103;54.176;12.070;2023-05-10T00:34:39;3.33;;;2.90;;
50213;SDS011;36103;54.176;12.070;2023-05-10T00:35:40;2.73;;;2.53;;
50213;SDS011;36103;54.176;12.070;2023-05-10T00:36:43;3.30;;;2.97;;
50213;SDS011;36103;54.176;12.070;2023-05-10T00:37:44;4.60;;;2.90;;
50213;SDS011;36103;54.176;12.070;2023-05-10T00:38:45;3.07;;;2.53;;
50213;SDS011;36103;54.176;12.070;2023-05-10T00:39:46;3.90;;;2.70;;
50213;SDS011;36103;54.176;12.070;2023-05-10T00:40:48;5.03;;;3.53;;
50213;SDS011;36103;54.176;12.070;2023-05-10T00:41:57;6.33;;;2.90;;
50213;SDS011;36103;54.176;12.070;2023-05-10T00:43:00;3.27;;;2.97;;
50213;SDS011;36103;54.176;12.070;2023-05-10T00:44:02;3.53;;;2.80;;
50213;SDS011;36103;54.176;12.070;2023-05-10T00:45:05;3.10;;;2.80;;
50213;SDS011;36103;54.176;12.070;2023-05-10T00:46:08;2.80;;;2.40;;
50213;SDS011;36103;54.176;12.070;2023-05-10T00:47:10;3.57;;;2.90;;
50213;SDS011;36103;54.176;12.070;2023-05-10T00:48:11;3.20;;;2.80;;
50213;SDS011;36103;54.176;12.070;2023-05-10T00:49:13;3.47;;;2.90;;
50213;SDS011;36103;54.176;12.070;2023-05-10T00:50:14;3.13;;;2.83;;
50213;SDS011;36103;54.176;12.070;2023-05-10T00:51:15;3.80;;;3.20;;
50213;SDS011;36103;54.176;12.070;2023-05-10T00:52:16;4.27;;;2.83;;
50213;SDS011;36103;54.176;12.070;2023-05-10T00:53:17;3.33;;;2.60;;
50213;SDS011;36103;54.176;12.070;2023-05-10T00:54:18;3.03;;;2.53;;
50213;SDS011;36103;54.176;12.070;2023-05-10T00:55:20;3.33;;;2.83;;
50213;SDS011;36103;54.176;12.070;2023-05-10T00:56:21;4.47;;;2.70;;
50213;SDS011;36103;54.176;12.070;2023-05-10T00:57:24;2.43;;;2.23;;
50213;SDS011;36103;54.176;12.070;2023-05-10T00:58:25;3.97;;;3.00;;
50213;SDS011;36103;54.176;12.070;2023-05-10T00:59:29;2.83;;;2.53;;
50213;SDS011;36103;54.176;12.070;2023-05-10T01:00:31;3.40;;;3.10;;
50213;SDS011;36103;54.176;12.070;2023-05-10T01:01:33;3.30;;;2.60;;
50213;SDS011;36103;54.176;12.070;2023-05-10T01:02:34;3.10;;;2.53;;
50213;SDS011;36103;54.176;12.070;2023-05-10T01:03:36;3.17;;;2.60;;
50213;SDS011;36103;54.176;12.070;2023-05-10T01:04:37;3.60;;;2.80;;
50213;SDS011;36103;54.176;12.070;2023-05-10T01:05:39;2.67;;;2.33;;
50213;SDS011;36103;54.176;12.070;2023-05-10T01:06:43;3.07;;;2.60;;
50213;SDS011;36103;54.176;12.070;2023-05-10T01:07:44;3.80;;;2.70;;
50213;SDS011;36103;54.176;12.070;2023-05-10T01:08:45;2.93;;;2.50;;
50213;SDS011;36103;54.176;12.070;2023-05-10T01:09:47;3.23;;;2.67;;
50213;SDS011;36103;54.176;12.070;2023-05-10T01:10:48;4.23;;;2.83;;
50213;SDS011;36103;54.176;12.070;2023-05-10T01:11:50;2.83;;;2.50;;
50213;SDS011;36103;54.176;12.070;2023-05-10T01:12:50;3.40;;;2.40;;
50213;SDS011;36103;54.176;12.070;2023-05-10T01:13:52;2.40;;;2.20;;
50213;SDS011;36103;54.176;12.070;2023-05-10T01:14:57;2.67;;;2.40;;
50213;SDS011;36103;54.176;12.070;2023-05-10T01:15:59;3.53;;;2.90;;
50213;SDS011;36103;54.176;12.070;2023-05-10T01:17:02;2.43;;;2.23;;
50213;SDS011;36103;54.176;12.070;2023-05-10T01:18:04;3.53;;;2.57;;
50213;SDS011;36103;54.176;12.070;2023-05-10T01:19:05;3.13;;;2.60;;
50213;SDS011;36103;54.176;12.070;2023-05-10T01:20:12;2.73;;;2.30;;
50213;SDS011;36103;54.176;12.070;2023-05-10T01:21:15;2.83;;;2.53;;
50213;SDS011;36103;54.176;12.070;2023-05-10T01:22:31;3.27;;;2.50;;
50213;SDS011;36103;54.176;12.070;2023-05-10T01:23:45;2.53;;;2.33;;
50213;SDS011;36103;54.176;12.070;2023-05-10T01:26:39;2.97;;;2.50;;
50213;SDS011;36103;54.176;12.070;2023-05-10T01:28:13;2.40;;;2.20;;
50213;SDS011;36103;54.176;12.070;2023-05-10T01:29:35;4.80;;;2.60;;
50213;SDS011;36103;54.176;12.070;2023-05-10T01:31:07;3.03;;;2.40;;
50213;SDS011;36103;54.176;12.070;2023-05-10T01:32:13;2.67;;;2.30;;
50213;SDS011;36103;54.176;12.070;2023-05-10T01:33:18;3.37;;;2.43;;
50213;SDS011;36103;54.176;12.070;2023-05-10T01:34:20;2.90;;;2.43;;
50213;SDS011;36103;54.176;12.070;2023-05-10T01:35:26;2.70;;;2.50;;
50213;SDS011;36103;54.176;12.070;2023-05-10T01:36:33;2.90;;;2.60;;
50213;SDS011;36103;54.176;12.070;2023-05-10T01:37:41;2.60;;;2.40;;
50213;SDS011;36103;54.176;12.070;2023-05-10T01:38:44;2.73;;;2.50;;
50213;SDS011;36103;54.176;12.070;2023-05-10T01:39:53;2.37;;;2.10;;
50213;SDS011;36103;54.176;12.070;2023-05-10T01:40:59;2.90;;;2.37;;
50213;SDS011;36103;54.176;12.070;2023-05-10T01:42:09;2.63;;;2.10;;
50213;SDS011;36103;54.176;12.070;2023-05-10T02:00:35;2.50;;;2.30;;
50213;SDS011;36103;54.176;12.070;2023-05-10T02:01:41;2.37;;;1.93;;
50213;SDS011;36103;54.176;12.070;2023-05-10T02:02:45;2.37;;;2.10;;
50213;SDS011;36103;54.176;12.070;2023-05-10T02:03:47;2.80;;;2.37;;
50213;SDS011;36103;54.176;12.070;2023-05-10T02:04:48;2.63;;;2.43;;
50213;SDS011;36103;54.176;12.070;2023-05-10T02:05:50;2.73;;;2.43;;
50213;SDS011;36103;54.176;12.070;2023-05-10T02:06:55;2.43;;;2.23;;
50213;SDS011;36103;54.176;12.070;2023-05-10T02:07:57;3.20;;;2.70;;
50213;SDS011;36103;54.176;12.070;2023-05-10T02:08:59;2.17;;;1.97;;
50213;SDS011;36103;54.176;12.070;2023-05-10T02:10:02;2.03;;;1.90;;
50213;SDS011;36103;54.176;12.070;2023-05-10T02:11:03;3.03;;;2.00;;
50213;SDS011;36103;54.176;12.070;2023-05-10T02:12:06;2.47;;;2.17;;
50213;SDS011;36103;54.176;12.070;2023-05-10T02:13:07;2.47;;;2.03;;
50213;SDS011;36103;54.176;12.070;2023-05-10T02:14:09;3.20;;;2.33;;
50213;SDS011;36103;54.176;12.070;2023-05-10T02:15:11;2.40;;;2.20;;
50213;SDS011;36103;54.176;12.070;2023-05-10T02:16:14;2.87;;;2.30;;
50213;SDS011;36103;54.176;12.070;2023-05-10T02:17:16;2.60;;;2.40;;
50213;SDS011;36103;54.176;12.070;2023-05-10T02:18:18;3.37;;;1.97;;
50213;SDS011;36103;54.176;12.070;2023-05-10T02:19:18;2.63;;;2.30;;
50213;SDS011;36103;54.176;12.070;2023-05-10T02:20:22;3.43;;;2.40;;
50213;SDS011;36103;54.176;12.070;2023-05-10T02:21:23;2.47;;;2.00;;
50213;SDS011;36103;54.176;12.070;2023-05-10T02:22:25;2.43;;;2.23;;
50213;SDS011;36103;54.176;12.070;2023-05-10T02:23:27;2.50;;;2.30;;
50213;SDS011;36103;54.176;12.070;2023-05-10T02:24:30;2.30;;;2.10;;
50213;SDS011;36103;54.176;12.070;2023-05-10T02:25:31;2.17;;;1.93;;
50213;SDS011;36103;54.176;12.070;2023-05-10T02:26:34;2.90;;;2.30;;
50213;SDS011;36103;54.176;12.070;2023-05-10T02:27:35;2.17;;;1.97;;
50213;SDS011;36103;54.176;12.070;2023-05-10T02:28:38;2.20;;;1.97;;
50213;SDS011;36103;54.176;12.070;2023-05-10T02:29:40;2.37;;;2.13;;
50213;SDS011;36103;54.176;12.070;2023-05-10T02:30:42;3.10;;;2.30;;
50213;SDS011;36103;54.176;12.070;2023-05-10T02:31:47;3.30;;;2.40;;
50213;SDS011;36103;54.176;12.070;2023-05-10T02:32:49;2.50;;;2.30;;
50213;SDS011;36103;54.176;12.070;2023-05-10T02:33:51;2.60;;;1.70;;
50213;SDS011;36103;54.176;12.070;2023-05-10T02:34:52;2.53;;;2.27;;
50213;SDS011;36103;54.176;12.070;2023-05-10T02:35:54;2.10;;;1.90;;
50213;SDS011;36103;54.176;12.070;2023-05-10T02:36:57;2.67;;;2.13;;
50213;SDS011;36103;54.176;12.070;2023-05-10T02:37:59;2.27;;;2.07;;
50213;SDS011;36103;54.176;12.070;2023-05-10T02:39:03;2.20;;;1.90;;
50213;SDS011;36103;54.176;12.070;2023-05-10T02:40:09;2.47;;;2.20;;
50213;SDS011;36103;54.176;12.070;2023-05-10T02:41:11;2.33;;;2.13;;
50213;SDS011;36103;54.176;12.070;2023-05-10T02:42:16;3.13;;;2.20;;
50213;SDS011;36103;54.176;12.070;2023-05-10T02:43:19;2.43;;;2.23;;
50213;SDS011;36103;54.176;12.070;2023-05-10T02:44:21;2.23;;;2.03;;
50213;SDS011;36103;54.176;12.070;2023-05-10T02:45:24;2.20;;;2.00;;
50213;SDS011;36103;54.176;12.070;2023-05-10T02:46:28;2.00;;;1.70;;
50213;SDS011;36103;54.176;12.070;2023-05-10T02:47:31;2.23;;;2.03;;
50213;SDS011;36103;54.176;12.070;2023-05-10T02:48:32;2.37;;;1.90;;
50213;SDS011;36103;54.176;12.070;2023-05-10T02:49:34;2.57;;;2.33;;
50213;SDS011;36103;54.176;12.070;2023-05-10T02:50:36;2.30;;;2.10;;
50213;SDS011;36103;54.176;12.070;2023-05-10T02:51:40;1.60;;;1.50;;
50213;SDS011;36103;54.176;12.070;2023-05-10T02:52:44;2.10;;;1.83;;
50213;SDS011;36103;54.176;12.070;2023-05-10T02:53:48;2.83;;;2.20;;
50213;SDS011;36103;54.176;12.070;2023-05-10T02:54:49;2.27;;;1.90;;
50213;SDS011;36103;54.176;12.070;2023-05-10T02:55:52;2.23;;;1.80;;
50213;SDS011;36103;54.176;12.070;2023-05-10T02:56:56;2.03;;;1.83;;
50213;SDS011;36103;54.176;12.070;2023-05-10T02:58:00;2.63;;;2.10;;
50213;SDS011;36103;54.176;12.070;2023-05-10T02:59:02;3.00;;;2.10;;
50213;SDS011;36103;54.176;12.070;2023-05-10T03:00:03;3.30;;;2.17;;
50213;SDS011;36103;54.176;12.070;2023-05-10T03:01:06;2.43;;;1.80;;
50213;SDS011;36103;54.176;12.070;2023-05-10T03:02:07;2.07;;;1.90;;
50213;SDS011;36103;54.176;12.070;2023-05-10T03:03:11;2.20;;;1.83;;
50213;SDS011;36103;54.176;12.070;2023-05-10T03:04:12;2.07;;;1.90;;
50213;SDS011;36103;54.176;12.070;2023-05-10T03:05:13;2.33;;;2.03;;
50213;SDS011;36103;54.176;12.070;2023-05-10T03:06:14;2.30;;;2.10;;
50213;SDS011;36103;54.176;12.070;2023-05-10T03:07:18;2.30;;;2.10;;
50213;SDS011;36103;54.176;12.070;2023-05-10T03:08:22;2.10;;;1.80;;
50213;SDS011;36103;54.176;12.070;2023-05-10T03:09:24;4.03;;;1.97;;
50213;SDS011;36103;54.176;12.070;2023-05-10T03:10:26;2.00;;;1.80;;
50213;SDS011;36103;54.176;12.070;2023-05-10T03:11:36;2.20;;;2.00;;
50213;SDS011;36103;54.176;12.070;2023-05-10T03:12:47;2.27;;;2.07;;
50213;SDS011;36103;54.176;12.070;2023-05-10T03:14:02;2.10;;;1.90;;
50213;SDS011;36103;54.176;12.070;2023-05-10T03:15:10;2.07;;;1.87;;
50213;SDS011;36103;54.176;12.070;2023-05-10T03:16:15;1.70;;;1.60;;
50213;SDS011;36103;54.176;12.070;2023-05-10T03:17:29;2.33;;;2.00;;
50213;SDS011;36103;54.176;12.070;2023-05-10T03:18:36;2.47;;;1.97;;
50213;SDS011;36103;54.176;12.070;2023-05-10T03:19:43;1.90;;;1.80;;
50213;SDS011;36103;54.176;12.070;2023-05-10T03:20:47;2.63;;;2.00;;
50213;SDS011;36103;54.176;12.070;2023-05-10T03:21:49;2.40;;;2.20;;
50213;SDS011;36103;54.176;12.070;2023-05-10T03:22:55;2.37;;;1.90;;
50213;SDS011;36103;54.176;12.070;2023-05-10T03:24:02;1.90;;;1.80;;
50213;SDS011;36103;54.176;12.070;2023-05-10T03:25:07;1.90;;;1.70;;
50213;SDS011;36103;54.176;12.070;2023-05-10T03:26:09;2.17;;;1.77;;
50213;SDS011;36103;54.176;12.070;2023-05-10T03:27:16;2.00;;;1.80;;
50213;SDS011;36103;54.176;12.070;2023-05-10T03:28:18;3.10;;;2.13;;
50213;SDS011;36103;54.176;12.070;2023-05-10T03:29:19;1.73;;;1.63;;
50213;SDS011;36103;54.176;12.070;2023-05-10T03:30:21;1.70;;;1.60;;
50213;SDS011;36103;54.176;12.070;2023-05-10T03:31:22;2.20;;;2.00;;
50213;SDS011;36103;54.176;12.070;2023-05-10T03:32:24;2.20;;;2.00;;
50213;SDS011;36103;54.176;12.070;2023-05-10T03:33:25;2.17;;;1.97;;
50213;SDS011;36103;54.176;12.070;2023-05-10T03:34:29;2.53;;;2.00;;
50213;SDS011;36103;54.176;12.070;2023-05-10T03:35:30;2.20;;;2.00;;
50213;SDS011;36103;54.176;12.070;2023-05-10T03:36:32;2.43;;;1.93;;
50213;SDS011;36103;54.176;12.070;2023-05-10T03:37:34;2.10;;;1.90;;
50213;SDS011;36103;54.176;12.070;2023-05-10T03:38:35;2.10;;;1.70;;
50213;SDS011;36103;54.176;12.070;2023-05-10T03:39:37;2.50;;;2.00;;
50213;SDS011;36103;54.176;12.070;2023-05-10T03:40:40;2.07;;;1.80;;
50213;SDS011;36103;54.176;12.070;2023-05-10T03:41:42;2.00;;;1.90;;
50213;SDS011;36103;54.176;12.070;2023-05-10T03:42:43;2.37;;;1.73;;
50213;SDS011;36103;54.176;12.070;2023-05-10T03:43:45;1.70;;;1.60;;
50213;SDS011;36103;54.176;12.070;2023-05-10T03:44:46;2.63;;;1.80;;
50213;SDS011;36103;54.176;12.070;2023-05-10T03:45:49;1.93;;;1.83;;
50213;SDS011;36103;54.176;12.070;2023-05-10T03:46:49;2.30;;;2.00;;
50213;SDS011;36103;54.176;12.070;2023-05-10T03:47:51;1.80;;;1.70;;
50213;SDS011;36103;54.176;12.070;2023-05-10T03:48:52;2.20;;;2.00;;
50213;SDS011;36103;54.176;12.070;2023-05-10T03:49:55;1.77;;;1.67;;
50213;SDS011;36103;54.176;12.070;2023-05-10T03:50:56;2.87;;;1.90;;
50213;SDS011;36103;54.176;12.070;2023-05-10T03:51:58;2.43;;;1.93;;
50213;SDS011;36103;54.176;12.070;2023-05-10T03:53:00;2.00;;;1.80;;
50213;SDS011;36103;54.176;12.070;2023-05-10T03:54:02;1.50;;;1.30;;
50213;SDS011;36103;54.176;12.070;2023-05-10T03:55:03;2.00;;;1.77;;
50213;SDS011;36103;54.176;12.070;2023-05-10T03:56:10;1.77;;;1.67;;
50213;SDS011;36103;54.176;12.070;2023-05-10T03:57:10;2.10;;;1.90;;
50213;SDS011;36103;54.176;12.070;2023-05-10T03:58:12;2.00;;;1.70;;
50213;SDS011;36103;54.176;12.070;2023-05-10T03:59:12;1.80;;;1.67;;
50213;SDS011;36103;54.176;12.070;2023-05-10T04:00:14;1.70;;;1.60;;
50213;SDS011;36103;54.176;12.070;2023-05-10T04:01:15;1.60;;;1.50;;
50213;SDS011;36103;54.176;12.070;2023-05-10T04:02:17;2.17;;;1.97;;
50213;SDS011;36103;54.176;12.070;2023-05-10T04:03:17;2.00;;;1.70;;
50213;SDS011;36103;54.176;12.070;2023-05-10T04:04:19;1.73;;;1.63;;
50213;SDS011;36103;54.176;12.070;2023-05-10T04:05:24;1.83;;;1.73;;
50213;SDS011;36103;54.176;12.070;2023-05-10T04:06:26;1.87;;;1.77;;
50213;SDS011;36103;54.176;12.070;2023-05-10T04:07:28;1.70;;;1.60;;
50213;SDS011;36103;54.176;12.070;2023-05-10T04:08:30;1.60;;;1.50;;
50213;SDS011;36103;54.176;12.070;2023-05-10T04:09:34;2.00;;;1.80;;
50213;SDS011;36103;54.176;12.070;2023-05-10T04:10:34;1.93;;;1.77;;
50213;SDS011;36103;54.176;12.070;2023-05-10T04:11:36;1.87;;;1.77;;
50213;SDS011;36103;54.176;12.070;2023-05-10T04:12:37;1.70;;;1.60;;
50213;SDS011;36103;54.176;12.070;2023-05-10T04:13:41;2.10;;;1.90;;
50213;SDS011;36103;54.176;12.070;2023-05-10T04:14:43;2.30;;;2.10;;
50213;SDS011;36103;54.176;12.070;2023-05-10T04:15:44;2.27;;;1.90;;
50213;SDS011;36103;54.176;12.070;2023-05-10T04:16:45;2.17;;;1.87;;
50213;SDS011;36103;54.176;12.070;2023-05-10T04:17:46;1.73;;;1.63;;
50213;SDS011;36103;54.176;12.070;2023-05-10T04:18:47;1.90;;;1.80;;
50213;SDS011;36103;54.176;12.070;2023-05-10T04:19:49;2.40;;;2.20;;
50213;SDS011;36103;54.176;12.070;2023-05-10T04:20:54;1.70;;;1.60;;
50213;SDS011;36103;54.176;12.070;2023-05-10T04:21:55;3.73;;;1.73;;
50213;SDS011;36103;54.176;12.070;2023-05-10T04:22:56;2.20;;;1.70;;
50213;SDS011;36103;54.176;12.070;2023-05-10T04:23:58;1.70;;;1.60;;
50213;SDS011;36103;54.176;12.070;2023-05-10T04:24:59;1.70;;;1.60;;
50213;SDS011;36103;54.176;12.070;2023-05-10T04:26:00;2.97;;;1.93;;
50213;SDS011;36103;54.176;12.070;2023-05-10T04:27:01;1.67;;;1.57;;
50213;SDS011;36103;54.176;12.070;2023-05-10T04:28:03;1.53;;;1.43;;
50213;SDS011;36103;54.176;12.070;2023-05-10T04:29:04;2.03;;;1.87;;
50213;SDS011;36103;54.176;12.070;2023-05-10T04:30:06;2.07;;;1.80;;
50213;SDS011;36103;54.176;12.070;2023-05-10T04:31:08;2.17;;;1.90;;
50213;SDS011;36103;54.176;12.070;2023-05-10T04:32:11;2.30;;;1.50;;
50213;SDS011;36103;54.176;12.070;2023-05-10T04:33:11;2.07;;;1.87;;
50213;SDS011;36103;54.176;12.070;2023-05-10T04:34:14;1.70;;;1.60;;
50213;SDS011;36103;54.176;12.070;2023-05-10T04:35:16;2.23;;;1.70;;
50213;SDS011;36103;54.176;12.070;2023-05-10T04:36:18;1.80;;;1.70;;
50213;SDS011;36103;54.176;12.070;2023-05-10T04:37:19;1.63;;;1.53;;
50213;SDS011;36103;54.176;12.070;2023-05-10T04:38:21;2.20;;;2.00;;
50213;SDS011;36103;54.176;12.070;2023-05-10T04:39:23;2.77;;;2.00;;
50213;SDS011;36103;54.176;12.070;2023-05-10T04:40:24;1.60;;;1.50;;
50213;SDS011;36103;54.176;12.070;2023-05-10T04:41:26;1.60;;;1.50;;
50213;SDS011;36103;54.176;12.070;2023-05-10T04:42:26;2.00;;;1.80;;
50213;SDS011;36103;54.176;12.070;2023-05-10T04:43:28;1.73;;;1.63;;
50213;SDS011;36103;54.176;12.070;2023-05-10T04:44:29;2.00;;;1.80;;
50213;SDS011;36103;54.176;12.070;2023-05-10T04:45:30;1.83;;;1.63;;
50213;SDS011;36103;54.176;12.070;2023-05-10T04:46:31;1.87;;;1.60;;
50213;SDS011;36103;54.176;12.070;2023-05-10T04:47:32;1.97;;;1.50;;
50213;SDS011;36103;54.176;12.070;2023-05-10T04:48:33;1.60;;;1.50;;
50213;SDS011;36103;54.176;12.070;2023-05-10T04:49:35;1.90;;;1.70;;
50213;SDS011;36103;54.176;12.070;2023-05-10T04:50:36;1.90;;;1.73;;
50213;SDS011;36103;54.176;12.070;2023-05-10T04:51:39;1.70;;;1.47;;
50213;SDS011;36103;54.176;12.070;2023-05-10T04:52:40;2.13;;;1.90;;
50213;SDS011;36103;54.176;12.070;2023-05-10T04:53:41;2.00;;;1.80;;
50213;SDS011;36103;54.176;12.070;2023-05-10T04:54:42;2.00;;;1.73;;
50213;SDS011;36103;54.176;12.070;2023-05-10T04:55:44;1.60;;;1.50;;
50213;SDS011;36103;54.176;12.070;2023-05-10T04:56:45;1.80;;;1.70;;
50213;SDS011;36103;54.176;12.070;2023-05-10T04:57:47;1.77;;;1.63;;
50213;SDS011;36103;54.176;12.070;2023-05-10T04:58:48;1.60;;;1.50;;
50213;SDS011;36103;54.176;12.070;2023-05-10T04:59:49;2.33;;;1.53;;
50213;SDS011;36103;54.176;12.070;2023-05-10T05:00:50;2.07;;;1.87;;
50213;SDS011;36103;54.176;12.070;2023-05-10T05:01:51;3.53;;;1.60;;
50213;SDS011;36103;54.176;12.070;2023-05-10T05:02:52;2.00;;;1.70;;
50213;SDS011;36103;54.176;12.070;2023-05-10T05:03:54;2.53;;;1.43;;
50213;SDS011;36103;54.176;12.070;2023-05-10T05:04:55;1.43;;;1.33;;
50213;SDS011;36103;54.176;12.070;2023-05-10T05:05:57;1.57;;;1.47;;
50213;SDS011;36103;54.176;12.070;2023-05-10T05:06:59;2.00;;;1.43;;
50213;SDS011;36103;54.176;12.070;2023-05-10T05:08:03;2.13;;;1.80;;
50213;SDS011;36103;54.176;12.070;2023-05-10T05:09:03;1.53;;;1.43;;
50213;SDS011;36103;54.176;12.070;2023-05-10T05:10:06;1.67;;;1.57;;
50213;SDS011;36103;54.176;12.070;2023-05-10T05:11:08;1.60;;;1.50;;
50213;SDS011;36103;54.176;12.070;2023-05-10T05:12:10;2.03;;;1.40;;
50213;SDS011;36103;54.176;12.070;2023-05-10T05:13:14;1.77;;;1.57;;
50213;SDS011;36103;54.176;12.070;2023-05-10T05:14:16;1.77;;;1.67;;
50213;SDS011;36103;54.176;12.070;2023-05-10T05:15:18;1.57;;;1.47;;
50213;SDS011;36103;54.176;12.070;2023-05-10T05:16:20;2.10;;;1.70;;
50213;SDS011;36103;54.176;12.070;2023-05-10T05:17:22;1.53;;;1.43;;
50213;SDS011;36103;54.176;12.070;2023-05-10T05:18:23;3.10;;;1.73;;
50213;SDS011;36103;54.176;12.070;2023-05-10T05:19:24;1.60;;;1.50;;
50213;SDS011;36103;54.176;12.070;2023-05-10T05:20:26;2.17;;;1.60;;
50213;SDS011;36103;54.176;12.070;2023-05-10T05:21:27;2.10;;;1.60;;
50213;SDS011;36103;54.176;12.070;2023-05-10T05:22:30;1.70;;;1.60;;
50213;SDS011;36103;54.176;12.070;2023-05-10T05:23:32;2.60;;;1.80;;
50213;SDS011;36103;54.176;12.070;2023-05-10T05:24:34;1.63;;;1.53;;
50213;SDS011;36103;54.176;12.070;2023-05-10T05:25:37;1.67;;;1.47;;
50213;SDS011;36103;54.176;12.070;2023-05-10T05:26:38;1.87;;;1.60;;
50213;SDS011;36103;54.176;12.070;2023-05-10T05:27:39;2.00;;;1.77;;
50213;SDS011;36103;54.176;12.070;2023-05-10T05:28:41;2.00;;;1.70;;
50213;SDS011;36103;54.176;12.070;2023-05-10T05:29:43;2.20;;;1.67;;
50213;SDS011;36103;54.176;12.070;2023-05-10T05:30:43;2.03;;;1.80;;
50213;SDS011;36103;54.176;12.070;2023-05-10T05:31:45;1.73;;;1.63;;
50213;SDS011;36103;54.176;12.070;2023-05-10T05:32:45;1.30;;;1.20;;
50213;SDS011;36103;54.176;12.070;2023-05-10T05:33:47;1.60;;;1.50;;
50213;SDS011;36103;54.176;12.070;2023-05-10T05:34:47;1.83;;;1.50;;
50213;SDS011;36103;54.176;12.070;2023-05-10T05:35:49;2.20;;;1.60;;
50213;SDS011;36103;54.176;12.070;2023-05-10T05:36:50;1.80;;;1.70;;
50213;SDS011;36103;54.176;12.070;2023-05-10T05:37:53;1.83;;;1.53;;
50213;SDS011;36103;54.176;12.070;2023-05-10T05:38:54;1.77;;;1.60;;
50213;SDS011;36103;54.176;12.070;2023-05-10T05:39:55;1.70;;;1.60;;
50213;SDS011;36103;54.176;12.070;2023-05-10T05:40:56;1.63;;;1.47;;
50213;SDS011;36103;54.176;12.070;2023-05-10T05:41:58;1.63;;;1.40;;
50213;SDS011;36103;54.176;12.070;2023-05-10T05:42:59;2.17;;;1.63;;
50213;SDS011;36103;54.176;12.070;2023-05-10T05:44:00;2.07;;;1.70;;
50213;SDS011;36103;54.176;12.070;2023-05-10T05:45:01;1.60;;;1.50;;
50213;SDS011;36103;54.176;12.070;2023-05-10T05:46:02;1.43;;;1.33;;
50213;SDS011;36103;54.176;12.070;2023-05-10T05:47:04;2.13;;;1.57;;
50213;SDS011;36103;54.176;12.070;2023-05-10T05:48:06;1.67;;;1.30;;
50213;SDS011;36103;54.176;12.070;2023-05-10T05:49:07;1.60;;;1.50;;
50213;SDS011;36103;54.176;12.070;2023-05-10T05:50:09;3.37;;;1.90;;
50213;SDS011;36103;54.176;12.070;2023-05-10T05:51:11;3.03;;;1.57;;
50213;SDS011;36103;54.176;12.070;2023-05-10T05:52:12;1.73;;;1.50;;
50213;SDS011;36103;54.176;12.070;2023-05-10T05:53:15;2.43;;;1.70;;
50213;SDS011;36103;54.176;12.070;2023-05-10T05:54:16;2.23;;;1.50;;
50213;SDS011;36103;54.176;12.070;2023-05-10T05:55:17;1.73;;;1.63;;
50213;SDS011;36103;54.176;12.070;2023-05-10T05:56:18;1.90;;;1.73;;
50213;SDS011;36103;54.176;12.070;2023-05-10T05:57:24;3.20;;;1.50;;
50213;SDS011;36103;54.176;12.070;2023-05-10T05:58:26;2.00;;;1.70;;
50213;SDS011;36103;54.176;12.070;2023-05-10T05:59:29;3.07;;;1.83;;
50213;SDS011;36103;54.176;12.070;2023-05-10T06:00:30;2.03;;;1.80;;
50213;SDS011;36103;54.176;12.070;2023-05-10T06:01:32;1.87;;;1.63;;
50213;SDS011;36103;54.176;12.070;2023-05-10T06:02:33;1.93;;;1.50;;
50213;SDS011;36103;54.176;12.070;2023-05-10T06:03:34;2.03;;;1.40;;
50213;SDS011;36103;54.176;12.070;2023-05-10T06:04:35;3.33;;;1.70;;
50213;SDS011;36103;54.176;12.070;2023-05-10T06:05:37;2.77;;;2.03;;
50213;SDS011;36103;54.176;12.070;2023-05-10T06:06:37;1.90;;;1.67;;
50213;SDS011;36103;54.176;12.070;2023-05-10T06:07:39;2.30;;;1.60;;
50213;SDS011;36103;54.176;12.070;2023-05-10T06:08:43;1.70;;;1.53;;
50213;SDS011;36103;54.176;12.070;2023-05-10T06:09:44;4.37;;;1.90;;
50213;SDS011;36103;54.176;12.070;2023-05-10T06:10:46;2.10;;;1.90;;
50213;SDS011;36103;54.176;12.070;2023-05-10T06:11:47;1.87;;;1.57;;
50213;SDS011;36103;54.176;12.070;2023-05-10T06:12:48;2.27;;;1.83;;
50213;SDS011;36103;54.176;12.070;2023-05-10T06:13:50;2.20;;;1.50;;
50213;SDS011;36103;54.176;12.070;2023-05-10T06:14:51;3.63;;;1.70;;
50213;SDS011;36103;54.176;12.070;2023-05-10T06:15:53;1.53;;;1.33;;
50213;SDS011;36103;54.176;12.070;2023-05-10T06:16:53;2.33;;;1.60;;
50213;SDS011;36103;54.176;12.070;2023-05-10T06:17:55;1.93;;;1.80;;
50213;SDS011;36103;54.176;12.070;2023-05-10T06:18:55;1.80;;;1.60;;
50213;SDS011;36103;54.176;12.070;2023-05-10T06:19:57;2.73;;;2.00;;
50213;SDS011;36103;54.176;12.070;2023-05-10T06:20:59;3.87;;;1.87;;
50213;SDS011;36103;54.176;12.070;2023-05-10T06:22:00;1.93;;;1.60;;
50213;SDS011;36103;54.176;12.070;2023-05-10T06:23:02;2.27;;;1.60;;
50213;SDS011;36103;54.176;12.070;2023-05-10T06:24:05;1.73;;;1.60;;
50213;SDS011;36103;54.176;12.070;2023-05-10T06:25:07;2.30;;;1.60;;
50213;SDS011;36103;54.176;12.070;2023-05-10T06:26:09;1.63;;;1.53;;
50213;SDS011;36103;54.176;12.070;2023-05-10T06:27:10;1.50;;;1.40;;
50213;SDS011;36103;54.176;12.070;2023-05-10T06:28:11;2.60;;;1.50;;
50213;SDS011;36103;54.176;12.070;2023-05-10T06:29:12;2.47;;;1.87;;
50213;SDS011;36103;54.176;12.070;2023-05-10T06:30:13;1.60;;;1.50;;